Overview Statistics Trail Chart Weather Telemetry Raw packets
 

This is the latest recevied weather packets stored in our database for station/object SR4DIG-13. If no packets are shown the sender has not sent any weather packets the latest 10 day(s).

<< 65 66 67 68 69 70 71 >>
Time Temp. Humidity Pressure Rain* Wind** Luminosity Snow
1788156480 23.89° C 56% 1013.6 hPa 0 mm - - -
1788156180 23.89° C 55% 1013.6 hPa 0 mm - - -
1788155879 25° C 53% 1013.6 hPa 0 mm - - -
1788155578 26.11° C 52% 1013.5 hPa 0 mm - - -
1788155259 25° C 56% 1013.6 hPa 0 mm - - -
1788154724 24.44° C 58% 1013.5 hPa 0 mm - - -
1788154423 23.89° C 58% 1013.6 hPa 0 mm - - -
1788154122 23.89° C 58% 1013.6 hPa 0 mm - - -
1788153822 23.89° C 59% 1013.6 hPa 0 mm - - -
1788153521 22.78° C 62% 1013.7 hPa 0 mm - - -
1788153220 22.22° C 63% 1013.7 hPa 0 mm - - -
1788152918 21.67° C 65% 1013.6 hPa 0 mm - - -
1788152618 21.11° C 66% 1013.5 hPa 0 mm - - -
1788152317 20.56° C 69% 1013.6 hPa 0 mm - - -
1788152016 20° C 71% 1013.6 hPa 0 mm - - -
1788151715 18.89° C 72% 1013.5 hPa 0 mm - - -
1788151414 18.33° C 73% 1013.5 hPa 0 mm - - -
1788151113 17.78° C 75% 1013.5 hPa 0 mm - - -
1788150812 17.22° C 77% 1013.6 hPa 0 mm - - -
1788150513 16.11° C 79% 1013.6 hPa 0 mm - - -
1788150211 15.56° C 79% 1013.7 hPa 0 mm - - -
1788149910 15° C 79% 1013.5 hPa 0 mm - - -
1788149609 15° C 79% 1013.4 hPa 0 mm - - -
1788149308 15° C 79% 1013.4 hPa 0 mm - - -
1788149007 15° C 80% 1013.4 hPa 0 mm - - -

* Rain latest hour (hover to see other rain measurements)
** Current wind speed in m/s (hover to see current wind gust speed)